createdAt,value
2023-12-21T00:01:51.157Z,7.70
2023-12-21T00:04:19.681Z,8.90
2023-12-21T00:06:47.524Z,5.68
2023-12-21T00:09:15.895Z,7.90
2023-12-21T00:11:44.052Z,8.50
2023-12-21T00:14:11.887Z,5.72
2023-12-21T00:16:39.882Z,7.35
2023-12-21T00:19:08.277Z,6.80
2023-12-21T00:21:36.290Z,5.30
2023-12-21T00:24:04.210Z,6.68
2023-12-21T00:26:32.664Z,5.53
2023-12-21T00:29:00.390Z,5.90
2023-12-21T00:31:28.344Z,4.18
2023-12-21T00:33:56.725Z,4.90
2023-12-21T00:36:24.530Z,3.85
2023-12-21T00:38:52.476Z,7.32
2023-12-21T00:41:20.570Z,5.60
2023-12-21T00:43:48.419Z,5.62
2023-12-21T00:46:16.501Z,7.68
2023-12-21T00:48:44.916Z,6.28
2023-12-21T00:51:12.979Z,6.10
2023-12-21T00:53:41.089Z,5.10
2023-12-21T00:56:10.165Z,3.00
2023-12-21T00:58:38.428Z,4.37
2023-12-21T01:01:06.694Z,4.50
2023-12-21T01:03:35.390Z,4.53
2023-12-21T01:06:03.548Z,5.60
2023-12-21T01:08:31.712Z,3.65
2023-12-21T01:11:01.438Z,4.72
2023-12-21T01:13:29.826Z,3.70
2023-12-21T01:16:00.270Z,5.37
2023-12-21T01:18:32.041Z,2.72
2023-12-21T01:21:00.289Z,5.65
2023-12-21T01:23:28.373Z,3.80
2023-12-21T01:25:56.548Z,2.97
2023-12-21T01:28:24.568Z,5.07
2023-12-21T01:30:52.733Z,3.87
2023-12-21T01:33:20.538Z,4.05
2023-12-21T01:35:49.209Z,6.37
2023-12-21T01:38:17.449Z,4.82
2023-12-21T01:40:45.355Z,2.95
2023-12-21T01:43:13.701Z,5.80
2023-12-21T01:45:41.775Z,4.30
2023-12-21T01:48:11.644Z,4.12
2023-12-21T01:50:42.136Z,3.22
2023-12-21T01:53:13.139Z,4.43
2023-12-21T01:55:41.913Z,3.05
2023-12-21T01:58:09.920Z,2.28
2023-12-21T02:00:38.999Z,6.85
2023-12-21T02:03:07.476Z,2.65
2023-12-21T02:05:35.578Z,4.10
2023-12-21T02:08:03.623Z,3.75
2023-12-21T02:10:32.049Z,5.25
2023-12-21T02:13:00.187Z,5.85
2023-12-21T02:15:28.257Z,7.10
2023-12-21T02:17:56.900Z,4.15
2023-12-21T02:20:24.994Z,7.82
2023-12-21T02:22:53.718Z,4.47
2023-12-21T02:25:21.958Z,2.25
2023-12-21T02:27:51.545Z,3.92
2023-12-21T02:30:20.121Z,3.40
2023-12-21T02:32:49.437Z,4.32
2023-12-21T02:35:17.873Z,6.18
2023-12-21T02:37:46.457Z,6.28
2023-12-21T02:40:15.683Z,4.82
2023-12-21T02:42:44.033Z,2.62
2023-12-21T02:45:12.580Z,3.55
2023-12-21T02:47:41.672Z,4.75
2023-12-21T02:50:10.339Z,4.78
2023-12-21T02:52:38.738Z,3.65
2023-12-21T02:55:10.410Z,2.78
2023-12-21T02:57:38.642Z,4.90
2023-12-21T03:00:09.265Z,4.03
2023-12-21T03:02:37.666Z,4.73
2023-12-21T03:05:06.355Z,3.70
2023-12-21T03:07:35.541Z,2.90
2023-12-21T03:10:06.688Z,4.90
2023-12-21T03:12:34.813Z,6.70
2023-12-21T03:15:03.508Z,6.18
2023-12-21T03:17:31.645Z,5.30
2023-12-21T03:19:59.528Z,5.05
2023-12-21T03:22:27.735Z,6.60
2023-12-21T03:24:55.926Z,5.47
2023-12-21T03:27:23.737Z,11.38
2023-12-21T03:29:52.631Z,8.20
2023-12-21T03:32:21.194Z,6.25
2023-12-21T03:34:50.653Z,5.68
2023-12-21T03:37:18.411Z,8.40
2023-12-21T03:39:47.546Z,4.80
2023-12-21T03:42:15.346Z,6.03
2023-12-21T03:44:43.133Z,7.78
2023-12-21T03:47:11.208Z,9.48
2023-12-21T03:49:39.049Z,6.85
2023-12-21T03:52:07.226Z,6.72
2023-12-21T03:54:35.414Z,5.72
2023-12-21T03:57:03.150Z,11.18
2023-12-21T03:59:30.914Z,9.45
2023-12-21T04:01:59.179Z,4.80
2023-12-21T04:04:28.985Z,5.28
2023-12-21T04:06:57.060Z,5.50
2023-12-21T04:09:26.466Z,12.73
2023-12-21T04:11:55.063Z,6.07
2023-12-21T04:14:22.537Z,7.32
2023-12-21T04:16:52.204Z,3.58
2023-12-21T04:19:20.262Z,3.25
2023-12-21T04:21:47.770Z,6.32
2023-12-21T04:24:15.898Z,4.40
2023-12-21T04:26:44.026Z,4.93
2023-12-21T04:29:11.354Z,5.90
2023-12-21T04:31:43.858Z,10.10
2023-12-21T04:34:11.745Z,7.15
2023-12-21T04:36:39.243Z,6.45
2023-12-21T04:39:06.512Z,4.22
2023-12-21T04:41:34.145Z,8.52
2023-12-21T04:44:01.658Z,7.45
2023-12-21T04:46:29.080Z,6.22
2023-12-21T04:48:56.722Z,6.70
2023-12-21T04:51:24.149Z,4.87
2023-12-21T04:53:52.914Z,5.53
2023-12-21T04:56:20.702Z,11.77
2023-12-21T04:58:48.081Z,11.65
2023-12-21T05:01:15.879Z,7.82
2023-12-21T05:03:44.179Z,12.82
2023-12-21T05:06:11.736Z,6.85
2023-12-21T05:08:39.178Z,10.63
2023-12-21T05:11:06.918Z,9.52
2023-12-21T05:13:34.368Z,12.70
2023-12-21T05:16:01.814Z,10.85
2023-12-21T05:18:29.817Z,20.98
2023-12-21T05:21:00.431Z,13.65
2023-12-21T05:23:28.146Z,16.33
2023-12-21T05:25:56.658Z,15.35
2023-12-21T05:28:24.426Z,13.50
2023-12-21T05:30:52.764Z,19.52
2023-12-21T05:33:20.845Z,18.48
2023-12-21T05:35:48.702Z,20.37
2023-12-21T05:38:16.371Z,23.27
2023-12-21T05:40:44.459Z,25.08
2023-12-21T05:43:12.281Z,25.45
2023-12-21T05:45:40.200Z,25.48
2023-12-21T05:48:08.495Z,22.60
2023-12-21T05:50:36.400Z,22.27
2023-12-21T05:53:04.903Z,27.33
2023-12-21T05:55:32.783Z,30.48
2023-12-21T05:58:00.528Z,29.42
2023-12-21T06:00:27.916Z,24.92
2023-12-21T06:02:55.411Z,29.85
2023-12-21T06:05:22.956Z,27.50
2023-12-21T06:07:51.446Z,29.67
2023-12-21T06:10:19.224Z,25.88
2023-12-21T06:12:47.388Z,36.88
2023-12-21T06:15:16.357Z,26.33
2023-12-21T06:17:44.412Z,31.05
2023-12-21T06:20:12.648Z,32.30
2023-12-21T06:22:40.292Z,32.53
2023-12-21T06:25:08.706Z,37.90
2023-12-21T06:27:36.053Z,33.47
2023-12-21T06:30:03.493Z,35.35
2023-12-21T06:32:31.527Z,32.95
2023-12-21T06:34:58.918Z,38.30
2023-12-21T06:37:26.236Z,34.13
2023-12-21T06:39:55.724Z,37.78
2023-12-21T06:42:23.886Z,37.42
2023-12-21T06:44:51.436Z,36.80
2023-12-21T06:47:19.128Z,39.85
2023-12-21T06:49:46.597Z,39.88
2023-12-21T06:52:14.010Z,41.63
2023-12-21T06:54:41.607Z,37.67
2023-12-21T06:57:09.050Z,35.83
2023-12-21T06:59:36.594Z,37.05
2023-12-21T07:02:04.599Z,33.78
2023-12-21T07:04:32.452Z,38.35
2023-12-21T07:07:00.459Z,37.05
2023-12-21T07:09:28.742Z,39.47
2023-12-21T07:11:57.280Z,41.55
2023-12-21T07:14:24.918Z,40.03
2023-12-21T07:16:53.081Z,36.88
2023-12-21T07:19:20.765Z,30.95
2023-12-21T07:21:48.418Z,39.42
2023-12-21T07:24:16.694Z,35.53
2023-12-21T07:26:44.414Z,36.50
2023-12-21T07:29:12.359Z,38.67
2023-12-21T07:31:42.070Z,29.33
2023-12-21T07:34:10.665Z,33.75
2023-12-21T07:36:39.804Z,31.30
2023-12-21T07:39:08.223Z,32.88
2023-12-21T07:41:36.259Z,32.60
2023-12-21T07:44:07.981Z,36.83
2023-12-21T07:46:36.666Z,44.08
2023-12-21T07:49:05.146Z,41.08
2023-12-21T07:51:33.660Z,37.67
2023-12-21T07:54:05.339Z,39.03
2023-12-21T07:56:34.337Z,37.00
2023-12-21T07:59:05.840Z,39.72
2023-12-21T08:01:33.220Z,42.90
2023-12-21T08:04:01.171Z,39.08
2023-12-21T08:06:29.033Z,30.98
2023-12-21T08:08:58.300Z,27.85
2023-12-21T08:11:29.419Z,21.50
2023-12-21T08:13:58.385Z,24.60
2023-12-21T08:16:26.030Z,22.62
2023-12-21T08:18:53.466Z,22.45
2023-12-21T08:21:20.662Z,23.30
2023-12-21T08:23:48.762Z,21.23
2023-12-21T08:26:16.868Z,18.55
2023-12-21T08:28:44.359Z,21.75
2023-12-21T08:31:12.404Z,19.23
2023-12-21T08:33:43.048Z,18.05
2023-12-21T08:36:16.529Z,18.05
2023-12-21T08:38:43.894Z,16.75
2023-12-21T08:41:11.240Z,17.62
2023-12-21T08:43:38.916Z,17.33
2023-12-21T08:46:06.242Z,19.65
2023-12-21T08:48:33.662Z,18.92
2023-12-21T08:51:01.181Z,21.83
2023-12-21T08:53:28.435Z,22.62
2023-12-21T08:55:55.723Z,18.48
2023-12-21T08:58:23.322Z,19.85
2023-12-21T09:00:50.846Z,20.52
2023-12-21T09:03:20.950Z,18.50
2023-12-21T09:09:19.138Z,28.27
2023-12-21T09:11:47.272Z,24.63
2023-12-21T09:14:14.988Z,32.03
2023-12-21T09:16:42.746Z,26.58
2023-12-21T09:19:11.659Z,24.67
2023-12-21T09:21:40.882Z,24.45
2023-12-21T09:24:09.736Z,23.20
2023-12-21T09:26:37.722Z,20.75
2023-12-21T09:29:05.562Z,23.80
2023-12-21T09:31:33.726Z,24.60
2023-12-21T09:34:05.758Z,26.55
2023-12-21T09:36:34.915Z,29.63
2023-12-21T09:39:31.346Z,28.15
2023-12-21T09:42:10.281Z,26.37
2023-12-21T09:44:38.630Z,26.60
2023-12-21T09:47:06.846Z,31.50
2023-12-21T09:49:38.990Z,26.77
2023-12-21T09:52:11.447Z,26.23
2023-12-21T09:54:42.668Z,27.85
2023-12-21T09:57:10.877Z,27.40
2023-12-21T09:59:39.011Z,26.30
2023-12-21T10:02:13.459Z,27.00
2023-12-21T10:08:12.564Z,23.92
2023-12-21T10:10:40.360Z,30.50
2023-12-21T10:13:07.701Z,19.45
2023-12-21T10:15:35.109Z,21.33
2023-12-21T10:18:07.245Z,23.10
2023-12-21T10:20:34.884Z,21.15
2023-12-21T10:23:02.097Z,24.08
2023-12-21T10:25:29.541Z,22.15
2023-12-21T10:27:57.590Z,25.37
2023-12-21T10:30:25.777Z,17.08
2023-12-21T10:32:56.664Z,39.60
2023-12-21T10:35:27.993Z,22.60
2023-12-21T10:37:56.045Z,21.80
2023-12-21T10:40:23.987Z,17.30
2023-12-21T10:42:53.287Z,20.08
2023-12-21T10:45:30.198Z,19.10
2023-12-21T10:48:09.502Z,16.40
2023-12-21T10:50:38.153Z,18.05
2023-12-21T10:53:05.858Z,21.73
2023-12-21T10:55:33.707Z,17.87
2023-12-21T10:58:04.125Z,21.10
2023-12-21T11:00:32.324Z,18.10
2023-12-21T11:03:18.027Z,15.02
2023-12-21T11:05:46.406Z,18.25
2023-12-21T11:08:14.384Z,19.98
2023-12-21T11:10:42.212Z,15.55
2023-12-21T11:13:11.144Z,19.80
2023-12-21T11:15:38.559Z,21.73
2023-12-21T11:18:09.741Z,17.60
2023-12-21T11:20:56.180Z,25.60
2023-12-21T11:23:24.611Z,16.10
2023-12-21T11:25:58.053Z,15.98
2023-12-21T11:28:30.482Z,15.73
2023-12-21T11:30:58.102Z,15.95
2023-12-21T11:33:30.407Z,20.85
2023-12-21T11:36:03.951Z,20.75
2023-12-21T11:38:52.666Z,20.23
2023-12-21T11:41:25.375Z,22.40
2023-12-21T11:43:58.305Z,17.10
2023-12-21T11:50:10.710Z,16.37
2023-12-21T11:56:16.727Z,15.75
2023-12-21T11:58:52.025Z,19.48
2023-12-21T12:01:27.888Z,19.10
2023-12-21T12:03:57.749Z,23.02
2023-12-21T12:06:29.827Z,18.83
2023-12-21T12:08:57.676Z,17.58
2023-12-21T12:11:26.624Z,14.80
2023-12-21T12:13:54.626Z,16.35
2023-12-21T12:16:22.549Z,28.27
2023-12-21T12:18:50.712Z,17.17
2023-12-21T12:21:18.255Z,18.12
2023-12-21T12:23:49.124Z,13.65
2023-12-21T12:26:17.463Z,16.20
2023-12-21T12:28:48.695Z,16.80
2023-12-21T12:31:16.379Z,14.00
2023-12-21T12:33:43.640Z,18.30
2023-12-21T12:36:11.081Z,19.83
2023-12-21T12:38:38.506Z,15.15
2023-12-21T12:41:08.281Z,20.02
2023-12-21T12:43:36.384Z,19.30
2023-12-21T12:46:06.256Z,15.32
2023-12-21T12:48:33.796Z,14.38
2023-12-21T12:51:01.505Z,15.77
2023-12-21T12:53:30.984Z,19.42
2023-12-21T12:55:59.373Z,16.80
2023-12-21T12:58:48.332Z,17.90
2023-12-21T13:01:26.838Z,18.08
2023-12-21T13:03:55.825Z,22.00
2023-12-21T13:06:25.238Z,16.27
2023-12-21T13:08:52.571Z,16.12
2023-12-21T13:11:19.923Z,18.80
2023-12-21T13:13:48.207Z,19.27
2023-12-21T13:16:19.720Z,22.20
2023-12-21T13:18:48.429Z,25.27
2023-12-21T13:21:15.799Z,22.23
2023-12-21T13:23:43.614Z,20.25
2023-12-21T13:26:14.112Z,18.70
2023-12-21T13:28:45.052Z,20.10
2023-12-21T13:31:13.454Z,17.05
2023-12-21T13:33:41.129Z,20.33
2023-12-21T13:36:11.306Z,17.15
2023-12-21T13:38:42.020Z,18.50
2023-12-21T13:41:10.626Z,20.85
2023-12-21T13:43:38.464Z,19.12
2023-12-21T13:46:08.476Z,18.60
2023-12-21T13:48:36.736Z,16.62
2023-12-21T13:51:04.938Z,18.00
2023-12-21T13:53:35.642Z,18.52
2023-12-21T13:56:04.250Z,17.95
2023-12-21T14:02:05.990Z,20.85
2023-12-21T14:07:47.846Z,16.60
2023-12-21T14:10:16.568Z,16.95
2023-12-21T14:12:44.617Z,19.95
2023-12-21T14:15:12.637Z,12.93
2023-12-21T14:17:42.083Z,18.37
2023-12-21T14:20:12.699Z,19.02
2023-12-21T14:22:41.105Z,19.27
2023-12-21T14:25:09.653Z,24.87
2023-12-21T14:27:37.416Z,21.15
2023-12-21T14:30:06.418Z,21.48
2023-12-21T14:32:37.316Z,16.60
2023-12-21T14:35:05.905Z,18.45
2023-12-21T14:37:33.758Z,20.12
2023-12-21T14:40:01.531Z,23.38
2023-12-21T14:42:34.267Z,23.83
2023-12-21T14:45:03.382Z,28.85
2023-12-21T14:47:32.857Z,26.10
2023-12-21T14:50:00.577Z,23.33
2023-12-21T14:52:28.494Z,29.95
2023-12-21T14:54:56.557Z,32.03
2023-12-21T14:57:25.089Z,35.83
2023-12-21T14:59:54.113Z,32.20
2023-12-21T15:02:22.050Z,32.55
2023-12-21T15:04:50.592Z,32.38
2023-12-21T15:07:19.881Z,30.83
2023-12-21T15:09:47.923Z,34.70
2023-12-21T15:12:19.024Z,37.08
2023-12-21T15:14:47.801Z,37.70
2023-12-21T15:17:15.702Z,36.15
2023-12-21T15:19:43.332Z,33.28
2023-12-21T15:22:11.182Z,43.92
2023-12-21T15:24:39.199Z,31.62
2023-12-21T15:27:07.024Z,31.15
2023-12-21T15:29:34.730Z,27.85
2023-12-21T15:32:03.042Z,27.35
2023-12-21T15:34:32.585Z,27.70
2023-12-21T15:37:00.706Z,24.42
2023-12-21T15:39:28.879Z,27.67
2023-12-21T15:41:57.993Z,25.35
2023-12-21T15:44:26.029Z,24.63
2023-12-21T15:46:54.075Z,26.87
2023-12-21T15:49:23.676Z,30.27
2023-12-21T15:51:51.396Z,27.42
2023-12-21T15:54:19.319Z,26.10
2023-12-21T15:56:47.376Z,28.92
2023-12-21T15:59:15.101Z,24.35
2023-12-21T16:01:43.828Z,32.38
2023-12-21T16:04:12.484Z,26.67
2023-12-21T16:06:40.376Z,25.42
2023-12-21T16:09:08.195Z,33.28
2023-12-21T16:11:36.135Z,36.72
2023-12-21T16:14:03.908Z,26.40
2023-12-21T16:16:31.761Z,29.52
2023-12-21T16:18:59.837Z,35.20
2023-12-21T16:21:28.621Z,42.00
2023-12-21T16:23:56.874Z,36.17
2023-12-21T16:26:24.787Z,28.62
2023-12-21T16:28:52.560Z,28.38
2023-12-21T16:31:20.406Z,27.23
2023-12-21T16:33:48.510Z,30.05
2023-12-21T16:36:16.019Z,26.70
2023-12-21T16:38:43.204Z,29.87
2023-12-21T16:41:11.192Z,32.03
2023-12-21T16:43:43.188Z,31.60
2023-12-21T16:46:10.872Z,48.28
2023-12-21T16:48:39.555Z,49.30
2023-12-21T16:51:12.786Z,31.15
2023-12-21T16:53:40.406Z,31.15
2023-12-21T16:56:07.635Z,28.90
2023-12-21T16:58:35.003Z,24.52
2023-12-21T17:01:03.137Z,24.12
2023-12-21T17:03:32.728Z,26.10
2023-12-21T17:06:00.045Z,37.97
2023-12-21T17:08:27.595Z,43.05
2023-12-21T17:10:55.163Z,30.88
2023-12-21T17:13:25.456Z,22.62
2023-12-21T17:15:54.657Z,23.83
2023-12-21T17:18:22.430Z,18.35
2023-12-21T17:20:49.960Z,20.80
2023-12-21T17:23:17.534Z,25.27
2023-12-21T17:25:45.020Z,19.08
2023-12-21T17:28:12.705Z,21.45
2023-12-21T17:30:40.313Z,21.27
2023-12-21T17:33:07.661Z,22.08
2023-12-21T17:35:37.807Z,24.70
2023-12-21T17:38:05.319Z,27.92
2023-12-21T17:40:32.478Z,33.35
2023-12-21T17:43:00.329Z,38.58
2023-12-21T17:45:27.851Z,31.35
2023-12-21T17:47:55.002Z,36.60
2023-12-21T17:53:53.709Z,34.50
2023-12-21T17:56:21.728Z,48.85
2023-12-21T17:58:49.865Z,38.38
2023-12-21T18:01:17.639Z,24.08
2023-12-21T18:03:45.171Z,26.30
2023-12-21T18:06:12.417Z,25.02
2023-12-21T18:08:40.877Z,23.38
2023-12-21T18:11:12.437Z,27.52
2023-12-21T18:13:42.812Z,26.90
2023-12-21T18:16:11.280Z,39.10
2023-12-21T18:18:39.611Z,29.52
2023-12-21T18:21:08.920Z,29.67
2023-12-21T18:23:37.849Z,24.40
2023-12-21T18:26:06.132Z,23.12
2023-12-21T18:28:35.016Z,25.95
2023-12-21T18:31:03.898Z,22.98
2023-12-21T18:33:32.923Z,31.35
2023-12-21T18:39:32.797Z,28.02
2023-12-21T18:42:01.542Z,29.55
2023-12-21T18:44:30.235Z,28.73
2023-12-21T18:46:59.286Z,33.58
2023-12-21T18:49:29.079Z,42.67
2023-12-21T18:51:58.086Z,38.13
2023-12-21T18:54:28.017Z,44.40
2023-12-21T18:56:58.199Z,35.08
2023-12-21T18:59:27.238Z,40.28
2023-12-21T19:01:56.177Z,31.60
2023-12-21T19:04:25.287Z,27.42
2023-12-21T19:06:56.194Z,31.73
2023-12-21T19:09:24.898Z,41.33
2023-12-21T19:11:53.227Z,39.22
2023-12-21T19:14:21.664Z,34.25
2023-12-21T19:16:50.952Z,32.72
2023-12-21T19:19:19.707Z,26.70
2023-12-21T19:21:48.343Z,31.37
2023-12-21T19:24:17.317Z,25.00
2023-12-21T19:26:46.214Z,26.30
2023-12-21T19:32:45.173Z,27.85
2023-12-21T19:37:45.909Z,22.17
2023-12-21T19:40:15.333Z,27.05
2023-12-21T19:42:44.058Z,24.25
2023-12-21T19:45:12.746Z,29.08
2023-12-21T19:47:41.397Z,32.20
2023-12-21T19:50:10.445Z,31.40
2023-12-21T19:52:39.352Z,26.60
2023-12-21T19:55:08.142Z,25.50
2023-12-21T19:57:36.129Z,28.85
2023-12-21T20:00:07.680Z,27.83
2023-12-21T20:02:39.328Z,29.75
2023-12-21T20:05:11.572Z,26.85
2023-12-21T20:07:46.660Z,29.12
2023-12-21T20:10:17.268Z,26.58
2023-12-21T20:12:47.056Z,32.08
2023-12-21T20:15:16.805Z,34.25
2023-12-21T20:17:47.331Z,40.47
2023-12-21T20:20:17.991Z,36.65
2023-12-21T20:22:48.983Z,25.62
2023-12-21T20:25:17.807Z,32.08
2023-12-21T20:27:51.036Z,43.13
2023-12-21T20:30:20.008Z,38.90
2023-12-21T20:32:50.606Z,32.33
2023-12-21T20:35:20.058Z,30.23
2023-12-21T20:37:49.781Z,35.70
2023-12-21T20:40:18.847Z,33.85
2023-12-21T20:42:47.363Z,34.58
2023-12-21T20:45:16.462Z,32.22
2023-12-21T20:47:44.936Z,25.33
2023-12-21T20:50:18.564Z,24.60
2023-12-21T20:52:48.640Z,23.58
2023-12-21T20:55:17.602Z,25.42
2023-12-21T21:01:16.445Z,36.00
2023-12-21T21:17:47.766Z,37.53
2023-12-21T21:20:16.848Z,36.45
2023-12-21T21:26:03.773Z,31.10
2023-12-21T21:28:54.826Z,33.22
2023-12-21T21:31:34.758Z,28.75
2023-12-21T21:34:02.619Z,32.67
2023-12-21T21:36:29.991Z,32.03
2023-12-21T21:42:06.513Z,30.52
2023-12-21T21:44:34.528Z,31.48
2023-12-21T21:47:04.217Z,81.63
2023-12-21T21:49:31.875Z,35.05
2023-12-21T21:55:30.669Z,25.62
2023-12-21T22:01:30.263Z,31.45
2023-12-21T22:03:57.790Z,38.70
2023-12-21T22:06:28.585Z,30.62
2023-12-21T22:08:55.882Z,37.70
2023-12-21T22:11:26.269Z,31.12
2023-12-21T22:13:53.534Z,31.00
2023-12-21T22:19:51.587Z,31.85
2023-12-21T22:25:39.204Z,31.40
2023-12-21T22:31:37.555Z,31.55
2023-12-21T22:34:05.590Z,31.83
2023-12-21T22:40:03.484Z,26.85
2023-12-21T22:42:34.777Z,30.02
2023-12-21T22:45:02.453Z,32.08
2023-12-21T22:51:00.285Z,31.48
2023-12-21T22:56:58.419Z,30.92
2023-12-21T22:59:26.302Z,32.33
2023-12-21T23:01:54.050Z,36.75
2023-12-21T23:04:22.062Z,39.28
2023-12-21T23:06:50.093Z,30.80
2023-12-21T23:09:17.789Z,30.98
2023-12-21T23:11:45.375Z,34.42
2023-12-21T23:14:13.301Z,31.33
2023-12-21T23:16:41.239Z,29.75
2023-12-21T23:19:10.869Z,29.80
2023-12-21T23:21:40.509Z,29.12
2023-12-21T23:24:08.391Z,29.08
2023-12-21T23:26:36.037Z,31.65
2023-12-21T23:29:05.185Z,33.40
2023-12-21T23:31:34.115Z,31.75
2023-12-21T23:34:01.830Z,47.03
2023-12-21T23:36:29.835Z,27.27
2023-12-21T23:38:57.494Z,32.25
2023-12-21T23:41:25.092Z,34.25
2023-12-21T23:43:52.545Z,31.73
2023-12-21T23:46:20.248Z,31.75
2023-12-21T23:48:48.534Z,31.05
2023-12-21T23:51:16.516Z,36.08
2023-12-21T23:53:43.589Z,29.10
2023-12-21T23:56:12.174Z,35.47
2023-12-21T23:58:40.363Z,31.23
